createdAt,value
2023-04-01T00:00:59.780Z,94134.69
2023-04-01T00:03:32.095Z,94134.94
2023-04-01T00:06:05.669Z,94142.72
2023-04-01T00:08:36.338Z,94135.91
2023-04-01T00:11:06.475Z,94130.19
2023-04-01T00:13:37.208Z,94134.06
2023-04-01T00:16:17.905Z,94124.91
2023-04-01T00:18:52.748Z,94121.97
2023-04-01T00:21:26.773Z,94123.28
2023-04-01T00:23:57.063Z,94111.13
2023-04-01T00:26:27.776Z,94115.97
2023-04-01T00:28:57.845Z,94105.75
2023-04-01T00:31:27.821Z,94120.38
2023-04-01T00:33:58.897Z,94119.75
2023-04-01T00:36:31.499Z,94118.44
2023-04-01T00:39:02.666Z,94117.09
2023-04-01T00:41:32.723Z,94112.91
2023-04-01T00:44:22.663Z,94115.50
2023-04-01T00:46:53.736Z,94119.13
2023-04-01T00:49:31.042Z,94112.56
2023-04-01T00:52:10.795Z,94111.28
2023-04-01T00:54:43.901Z,94114.47
2023-04-01T00:57:19.457Z,94111.63
2023-04-01T00:59:53.865Z,94112.66
2023-04-01T01:02:25.850Z,94114.78
2023-04-01T01:04:57.002Z,94110.66
2023-04-01T01:07:46.330Z,94109.88
2023-04-01T01:10:24.385Z,94112.88
2023-04-01T01:13:06.224Z,94114.69
2023-04-01T01:15:43.533Z,94110.59
2023-04-01T01:18:23.844Z,94108.19
2023-04-01T01:21:35.888Z,94105.91
2023-04-01T01:24:43.960Z,94106.19
2023-04-01T01:27:15.630Z,94108.81
2023-04-01T01:30:13.988Z,94096.53
2023-04-01T01:33:17.203Z,94101.75
2023-04-01T01:35:57.092Z,94097.03
2023-04-01T01:38:31.374Z,94100.66
2023-04-01T01:41:11.490Z,94095.97
2023-04-01T01:43:47.439Z,94089.41
2023-04-01T01:46:25.040Z,94089.66
2023-04-01T01:48:56.995Z,94084.28
2023-04-01T01:51:32.527Z,94081.88
2023-04-01T01:54:04.746Z,94092.91
2023-04-01T01:56:39.158Z,94099.13
2023-04-01T01:59:15.825Z,94092.72
2023-04-01T02:01:53.810Z,94082.28
2023-04-01T02:04:26.443Z,94099.53
2023-04-01T02:07:05.270Z,94106.81
2023-04-01T02:09:35.618Z,94101.03
2023-04-01T02:12:10.996Z,94103.19
2023-04-01T02:14:49.775Z,94095.81
2023-04-01T02:17:22.663Z,94104.69
2023-04-01T02:20:00.403Z,94104.38
2023-04-01T02:22:37.816Z,94101.13
2023-04-01T02:25:12.782Z,94115.81
2023-04-01T02:27:44.199Z,94107.16
2023-04-01T02:30:16.621Z,94103.81
2023-04-01T02:32:48.468Z,94113.81
2023-04-01T02:35:20.837Z,94105.19
2023-04-01T02:37:55.896Z,94113.50
2023-04-01T02:40:29.563Z,94112.72
2023-04-01T02:42:59.596Z,94120.53
2023-04-01T02:45:31.117Z,94121.25
2023-04-01T02:48:01.439Z,94123.66
2023-04-01T02:50:31.491Z,94120.47
2023-04-01T02:53:04.948Z,94123.00
2023-04-01T02:55:39.386Z,94120.97
2023-04-01T02:58:09.618Z,94124.63
2023-04-01T03:00:40.682Z,94124.81
2023-04-01T03:03:11.121Z,94119.06
2023-04-01T03:05:43.323Z,94122.94
2023-04-01T03:08:17.087Z,94127.38
2023-04-01T03:10:47.655Z,94127.84
2023-04-01T03:13:19.517Z,94125.00
2023-04-01T03:15:49.650Z,94127.69
2023-04-01T03:18:23.544Z,94125.00
2023-04-01T03:20:53.637Z,94122.63
2023-04-01T03:23:26.378Z,94128.72
2023-04-01T03:25:56.828Z,94130.94
2023-04-01T03:28:27.011Z,94138.56
2023-04-01T03:30:57.161Z,94135.06
2023-04-01T03:33:27.430Z,94141.00
2023-04-01T03:35:57.982Z,94138.94
2023-04-01T03:38:31.313Z,94133.22
2023-04-01T03:41:01.354Z,94141.88
2023-04-01T03:43:31.736Z,94147.34
2023-04-01T03:46:02.827Z,94128.25
2023-04-01T03:48:33.630Z,94131.34
2023-04-01T03:51:03.742Z,94142.59
2023-04-01T03:53:36.975Z,94134.66
2023-04-01T03:56:11.550Z,94145.03
2023-04-01T03:58:42.670Z,94143.13
2023-04-01T04:01:22.664Z,94149.63
2023-04-01T04:03:56.136Z,94144.16
2023-04-01T04:06:27.464Z,94156.34
2023-04-01T04:09:01.186Z,94151.84
2023-04-01T04:11:35.648Z,94157.38
2023-04-01T04:14:06.547Z,94155.00
2023-04-01T04:16:40.249Z,94157.06
2023-04-01T04:19:10.869Z,94149.31
2023-04-01T04:21:40.892Z,94155.53
2023-04-01T04:24:14.209Z,94146.91
2023-04-01T04:27:10.540Z,94143.75
2023-04-01T04:29:47.643Z,94143.06
2023-04-01T04:32:17.623Z,94153.28
2023-04-01T04:34:47.611Z,94164.28
2023-04-01T04:37:17.706Z,94157.00
2023-04-01T04:39:50.897Z,94159.63
2023-04-01T04:42:22.362Z,94161.75
2023-04-01T04:44:56.075Z,94164.03
2023-04-01T04:47:26.519Z,94164.59
2023-04-01T04:49:56.934Z,94167.31
2023-04-01T04:52:27.017Z,94171.34
2023-04-01T04:54:59.617Z,94169.28
2023-04-01T04:57:29.780Z,94170.06
2023-04-01T04:59:59.989Z,94168.16
2023-04-01T05:02:47.376Z,94181.31
2023-04-01T05:05:18.137Z,94173.00
2023-04-01T05:07:49.150Z,94167.06
2023-04-01T05:10:21.928Z,94169.91
2023-04-01T05:12:53.181Z,94176.56
2023-04-01T05:15:25.812Z,94171.00
2023-04-01T05:17:56.245Z,94171.25
2023-04-01T05:20:26.515Z,94166.47
2023-04-01T05:23:00.518Z,94165.78
2023-04-01T05:25:33.168Z,94167.94
2023-04-01T05:28:08.011Z,94172.34
2023-04-01T05:30:38.576Z,94174.97
2023-04-01T05:33:26.205Z,94183.94
2023-04-01T05:35:57.526Z,94172.44
2023-04-01T05:38:28.127Z,94166.91
2023-04-01T05:41:06.204Z,94167.78
2023-04-01T05:43:40.917Z,94153.25
2023-04-01T05:46:49.035Z,94165.38
2023-04-01T05:49:23.407Z,94163.56
2023-04-01T05:51:55.034Z,94162.91
2023-04-01T05:54:26.654Z,94169.47
2023-04-01T05:56:59.738Z,94171.13
2023-04-01T05:59:30.371Z,94164.22
2023-04-01T06:02:01.677Z,94161.38
2023-04-01T06:04:41.624Z,94164.06
2023-04-01T06:07:16.450Z,94161.03
2023-04-01T06:09:47.584Z,94166.78
2023-04-01T06:12:40.937Z,94168.72
2023-04-01T06:15:27.428Z,94159.13
2023-04-01T06:18:18.063Z,94166.03
2023-04-01T06:21:01.930Z,94166.72
2023-04-01T06:24:01.146Z,94168.16
2023-04-01T06:26:41.479Z,94163.84
2023-04-01T06:29:35.109Z,94163.22
2023-04-01T06:32:42.795Z,94155.50
2023-04-01T06:35:26.922Z,94170.03
2023-04-01T06:38:23.736Z,94171.88
2023-04-01T06:41:23.969Z,94168.88
2023-04-01T06:44:10.178Z,94163.81
2023-04-01T06:47:07.627Z,94171.59
2023-04-01T06:50:08.043Z,94166.00
2023-04-01T06:53:07.892Z,94162.41
2023-04-01T06:56:05.666Z,94172.91
2023-04-01T06:59:12.975Z,94180.59
2023-04-01T07:01:48.417Z,94173.44
2023-04-01T07:04:28.718Z,94177.94
2023-04-01T07:07:04.148Z,94187.69
2023-04-01T07:09:40.993Z,94177.66
2023-04-01T07:12:42.687Z,94171.09
2023-04-01T07:15:44.310Z,94188.00
2023-04-01T07:18:21.443Z,94185.13
2023-04-01T07:20:57.140Z,94185.09
2023-04-01T07:23:32.581Z,94179.75
2023-04-01T07:26:21.890Z,94186.03
2023-04-01T07:29:14.542Z,94181.53
2023-04-01T07:32:13.517Z,94181.81
2023-04-01T07:34:59.262Z,94176.41
2023-04-01T07:37:44.527Z,94185.47
2023-04-01T07:40:27.929Z,94179.94
2023-04-01T07:43:18.414Z,94193.53
2023-04-01T07:46:15.553Z,94191.00
2023-04-01T07:48:58.134Z,94196.84
2023-04-01T07:51:39.318Z,94191.59
2023-04-01T07:54:21.825Z,94192.66
2023-04-01T07:57:04.237Z,94204.28
2023-04-01T08:00:02.567Z,94194.81
2023-04-01T08:03:15.668Z,94187.44
2023-04-01T08:05:59.520Z,94186.94
2023-04-01T08:08:48.444Z,94194.28
2023-04-01T08:11:54.052Z,94192.13
2023-04-01T08:15:04.468Z,94181.38
2023-04-01T08:18:14.215Z,94188.56
2023-04-01T08:20:51.664Z,94187.81
2023-04-01T08:23:30.565Z,94184.06
2023-04-01T08:26:08.968Z,94167.75
2023-04-01T08:28:55.223Z,94192.69
2023-04-01T08:31:37.939Z,94185.13
2023-04-01T08:34:19.540Z,94179.88
2023-04-01T08:36:57.338Z,94181.47
2023-04-01T08:39:36.396Z,94184.56
2023-04-01T08:42:35.819Z,94181.34
2023-04-01T08:45:36.381Z,94164.69
2023-04-01T08:48:27.999Z,94175.50
2023-04-01T08:51:38.971Z,94170.09
2023-04-01T08:54:42.637Z,94168.34
2023-04-01T08:57:26.962Z,94172.59
2023-04-01T09:00:37.698Z,94173.09
2023-04-01T09:03:47.791Z,94160.31
2023-04-01T09:06:40.165Z,94165.25
2023-04-01T09:09:40.347Z,94159.06
2023-04-01T09:12:32.277Z,94159.75
2023-04-01T09:15:23.812Z,94138.63
2023-04-01T09:18:16.458Z,94155.53
2023-04-01T09:21:11.536Z,94161.16
2023-04-01T09:24:12.233Z,94165.38
2023-04-01T09:27:06.421Z,94166.03
2023-04-01T09:30:02.849Z,94154.25
2023-04-01T09:32:52.751Z,94149.72
2023-04-01T09:35:46.198Z,94146.41
2023-04-01T09:38:26.356Z,94139.81
2023-04-01T09:41:01.502Z,94142.31
2023-04-01T09:44:05.669Z,94146.06
2023-04-01T09:47:12.441Z,94134.78
2023-04-01T09:50:14.488Z,94137.91
2023-04-01T09:53:05.166Z,94132.41
2023-04-01T09:56:10.186Z,94141.47
2023-04-01T09:59:22.047Z,94125.25
2023-04-01T10:03:03.884Z,94133.63
2023-04-01T10:06:14.472Z,94126.22
2023-04-01T10:09:23.102Z,94130.97
2023-04-01T10:12:23.733Z,94136.72
2023-04-01T10:15:41.185Z,94142.50
2023-04-01T10:18:43.390Z,94133.34
2023-04-01T10:21:43.895Z,94139.94
2023-04-01T10:24:46.296Z,94135.28
2023-04-01T10:27:47.585Z,94134.75
2023-04-01T10:31:03.650Z,94145.97
2023-04-01T10:34:10.534Z,94137.72
2023-04-01T10:36:54.534Z,94158.28
2023-04-01T10:40:10.623Z,94148.72
2023-04-01T10:43:42.598Z,94149.41
2023-04-01T10:46:44.578Z,94152.22
2023-04-01T10:49:46.880Z,94164.47
2023-04-01T10:52:50.561Z,94147.47
2023-04-01T10:56:11.906Z,94168.94
2023-04-01T10:59:45.999Z,94175.06
2023-04-01T11:03:28.613Z,94180.38
2023-04-01T11:07:04.114Z,94169.31
2023-04-01T11:10:23.408Z,94166.69
2023-04-01T11:13:36.391Z,94172.75
2023-04-01T11:16:37.663Z,94170.88
2023-04-01T11:19:43.891Z,94167.47
2023-04-01T11:22:50.647Z,94159.56
2023-04-01T11:26:04.235Z,94167.75
2023-04-01T11:29:27.198Z,94183.25
2023-04-01T11:32:19.590Z,94182.75
2023-04-01T11:35:26.076Z,94192.75
2023-04-01T11:38:08.910Z,94200.91
2023-04-01T11:41:10.964Z,94198.03
2023-04-01T11:44:21.021Z,94190.38
2023-04-01T11:47:40.057Z,94196.59
2023-04-01T11:50:25.448Z,94186.31
2023-04-01T11:53:14.060Z,94191.53
2023-04-01T11:56:02.034Z,94184.13
2023-04-01T11:58:56.425Z,94188.00
2023-04-01T12:01:55.441Z,94197.41
2023-04-01T12:05:15.992Z,94193.44
2023-04-01T12:08:01.398Z,94195.47
2023-04-01T12:10:42.001Z,94179.97
2023-04-01T12:13:27.564Z,94197.75
2023-04-01T12:16:20.831Z,94194.31
2023-04-01T12:19:03.730Z,94190.56
2023-04-01T12:21:40.905Z,94184.50
2023-04-01T12:24:34.954Z,94194.97
2023-04-01T12:27:24.220Z,94188.91
2023-04-01T12:30:38.514Z,94190.66
2023-04-01T12:33:50.568Z,94197.69
2023-04-01T12:36:44.470Z,94193.97
2023-04-01T12:39:47.649Z,94195.00
2023-04-01T12:42:41.558Z,94197.84
2023-04-01T12:45:32.024Z,94195.69
2023-04-01T12:48:53.666Z,94196.94
2023-04-01T12:51:48.736Z,94200.09
2023-04-01T12:54:53.261Z,94200.31
2023-04-01T12:58:03.201Z,94199.00
2023-04-01T13:00:53.957Z,94205.47
2023-04-01T13:03:45.604Z,94204.19
2023-04-01T13:06:46.621Z,94203.09
2023-04-01T13:09:32.837Z,94206.00
2023-04-01T13:12:28.689Z,94206.00
2023-04-01T13:15:35.843Z,94210.13
2023-04-01T13:18:24.744Z,94205.38
2023-04-01T13:21:09.100Z,94217.69
2023-04-01T13:23:56.742Z,94214.78
2023-04-01T13:26:35.105Z,94220.28
2023-04-01T13:29:15.371Z,94230.97
2023-04-01T13:32:04.423Z,94235.16
2023-04-01T13:35:03.601Z,94237.50
2023-04-01T13:37:52.952Z,94223.53
2023-04-01T13:40:46.855Z,94213.19
2023-04-01T13:43:29.659Z,94215.09
2023-04-01T13:46:21.055Z,94216.47
2023-04-01T13:49:21.731Z,94223.88
2023-04-01T13:52:25.689Z,94215.84
2023-04-01T13:55:14.604Z,94218.59
2023-04-01T13:58:12.160Z,94214.19
2023-04-01T14:01:05.044Z,94209.78
2023-04-01T14:03:49.703Z,94217.16
2023-04-01T14:06:39.017Z,94223.22
2023-04-01T14:09:30.400Z,94212.75
2023-04-01T14:12:09.894Z,94207.75
2023-04-01T14:15:04.239Z,94210.16
2023-04-01T14:17:59.894Z,94204.38
2023-04-01T14:20:37.789Z,94207.59
2023-04-01T14:23:27.207Z,94220.75
2023-04-01T14:26:28.606Z,94215.00
2023-04-01T14:29:15.417Z,94222.09
2023-04-01T14:32:02.750Z,94224.47
2023-04-01T14:34:50.158Z,94216.31
2023-04-01T14:37:35.694Z,94217.38
2023-04-01T14:40:30.643Z,94220.75
2023-04-01T14:43:23.368Z,94228.09
2023-04-01T14:46:23.407Z,94224.94
2023-04-01T14:49:03.074Z,94227.56
2023-04-01T14:51:38.731Z,94236.69
2023-04-01T14:54:23.770Z,94229.03
2023-04-01T14:57:07.322Z,94227.22
2023-04-01T14:59:42.838Z,94235.88
2023-04-01T15:02:36.958Z,94231.13
2023-04-01T15:05:20.720Z,94227.22
2023-04-01T15:08:09.555Z,94226.13
2023-04-01T15:10:57.346Z,94226.31
2023-04-01T15:14:00.480Z,94231.78
2023-04-01T15:16:40.762Z,94239.13
2023-04-01T15:19:27.671Z,94222.53
2023-04-01T15:22:31.741Z,94239.03
2023-04-01T15:25:22.829Z,94233.50
2023-04-01T15:28:02.310Z,94240.03
2023-04-01T15:30:41.272Z,94242.88
2023-04-01T15:33:36.714Z,94243.88
2023-04-01T15:36:20.292Z,94248.91
2023-04-01T15:39:00.976Z,94255.94
2023-04-01T15:41:45.306Z,94238.09
2023-04-01T15:44:41.972Z,94254.09
2023-04-01T15:47:36.100Z,94252.50
2023-04-01T15:50:32.261Z,94257.97
2023-04-01T15:53:21.477Z,94261.91
2023-04-01T15:56:03.268Z,94262.16
2023-04-01T15:58:51.676Z,94262.69
2023-04-01T16:01:38.462Z,94251.94
2023-04-01T16:04:31.371Z,94247.94
2023-04-01T16:07:20.107Z,94262.09
2023-04-01T16:10:20.789Z,94259.03
2023-04-01T16:13:07.532Z,94260.53
2023-04-01T16:15:46.839Z,94261.03
2023-04-01T16:18:46.341Z,94248.41
2023-04-01T16:21:37.520Z,94257.78
2023-04-01T16:24:21.615Z,94256.72
2023-04-01T16:26:58.727Z,94263.00
2023-04-01T16:29:42.282Z,94260.63
2023-04-01T16:32:27.679Z,94265.56
2023-04-01T16:35:28.218Z,94264.66
2023-04-01T16:38:07.165Z,94251.88
2023-04-01T16:40:48.266Z,94265.25
2023-04-01T16:43:29.170Z,94265.31
2023-04-01T16:46:29.945Z,94260.06
2023-04-01T16:49:08.481Z,94264.84
2023-04-01T16:51:48.264Z,94265.06
2023-04-01T16:54:31.263Z,94263.03
2023-04-01T16:57:19.126Z,94275.34
2023-04-01T16:59:59.958Z,94284.00
2023-04-01T17:02:40.645Z,94282.22
2023-04-01T17:05:15.854Z,94271.72
2023-04-01T17:08:00.144Z,94282.22
2023-04-01T17:10:50.601Z,94281.94
2023-04-01T17:13:48.859Z,94270.63
2023-04-01T17:16:46.177Z,94282.94
2023-04-01T17:19:37.809Z,94291.84
2023-04-01T17:22:22.366Z,94291.84
2023-04-01T17:25:09.431Z,94276.91
2023-04-01T17:27:50.789Z,94296.78
2023-04-01T17:30:30.192Z,94294.97
2023-04-01T17:33:25.121Z,94292.28
2023-04-01T17:36:03.724Z,94288.34
2023-04-01T17:39:10.066Z,94298.81
2023-04-01T17:41:51.081Z,94300.97
2023-04-01T17:44:36.814Z,94306.22
2023-04-01T17:47:30.042Z,94302.25
2023-04-01T17:50:15.808Z,94302.78
2023-04-01T17:52:59.337Z,94297.50
2023-04-01T17:55:55.198Z,94302.34
2023-04-01T17:58:32.422Z,94303.56
2023-04-01T18:01:23.948Z,94307.41
2023-04-01T18:04:19.463Z,94308.41
2023-04-01T18:07:10.636Z,94312.78
2023-04-01T18:09:59.991Z,94321.69
2023-04-01T18:12:44.733Z,94324.00
2023-04-01T18:15:26.629Z,94323.47
2023-04-01T18:18:15.166Z,94330.47
2023-04-01T18:20:58.497Z,94341.19
2023-04-01T18:23:42.785Z,94337.00
2023-04-01T18:26:25.915Z,94351.84
2023-04-01T18:29:03.465Z,94341.03
2023-04-01T18:31:42.247Z,94346.78
2023-04-01T18:34:21.879Z,94354.31
2023-04-01T18:36:57.590Z,94357.44
2023-04-01T18:39:40.984Z,94360.31
2023-04-01T18:42:28.281Z,94354.72
2023-04-01T18:45:05.315Z,94353.88
2023-04-01T18:47:48.312Z,94354.91
2023-04-01T18:50:28.615Z,94356.91
2023-04-01T18:53:04.472Z,94363.63
2023-04-01T18:55:50.949Z,94368.31
2023-04-01T18:58:32.706Z,94357.84
2023-04-01T19:01:15.788Z,94370.66
2023-04-01T19:03:58.073Z,94371.09
2023-04-01T19:06:37.547Z,94370.31
2023-04-01T19:09:23.946Z,94365.31
2023-04-01T19:12:19.136Z,94369.19
2023-04-01T19:15:06.988Z,94369.69
2023-04-01T19:17:55.310Z,94369.34
2023-04-01T19:20:35.562Z,94384.50
2023-04-01T19:23:35.740Z,94392.69
2023-04-01T19:26:14.639Z,94403.16
2023-04-01T19:28:56.671Z,94404.50
2023-04-01T19:31:42.830Z,94400.72
2023-04-01T19:34:29.060Z,94400.63
2023-04-01T19:37:06.526Z,94398.25
2023-04-01T19:39:52.315Z,94404.94
2023-04-01T19:42:35.390Z,94408.03
2023-04-01T19:45:20.719Z,94418.97
2023-04-01T19:48:07.179Z,94417.88
2023-04-01T19:50:46.793Z,94423.00
2023-04-01T19:53:32.176Z,94421.31
2023-04-01T19:56:16.038Z,94424.19
2023-04-01T19:58:55.736Z,94415.44
2023-04-01T20:01:44.991Z,94422.16
2023-04-01T20:04:26.292Z,94425.25
2023-04-01T20:07:05.123Z,94421.97
2023-04-01T20:09:57.688Z,94427.44
2023-04-01T20:12:47.238Z,94423.34
2023-04-01T20:15:31.477Z,94425.66
2023-04-01T20:18:05.281Z,94437.38
2023-04-01T20:20:40.223Z,94432.06
2023-04-01T20:23:36.691Z,94439.56
2023-04-01T20:26:12.747Z,94438.44
2023-04-01T20:28:51.335Z,94436.03
2023-04-01T20:31:35.288Z,94444.34
2023-04-01T20:34:27.367Z,94435.38
2023-04-01T20:37:31.528Z,94447.66
2023-04-01T20:40:31.536Z,94444.25
2023-04-01T20:43:24.059Z,94444.72
2023-04-01T20:46:02.176Z,94448.56
2023-04-01T20:49:02.648Z,94444.13
2023-04-01T20:51:36.448Z,94452.22
2023-04-01T20:54:32.774Z,94449.03
2023-04-01T20:57:12.987Z,94455.84
2023-04-01T20:59:59.233Z,94450.84
2023-04-01T21:02:57.847Z,94456.88
2023-04-01T21:05:57.861Z,94459.72
2023-04-01T21:08:44.211Z,94469.34
2023-04-01T21:11:26.618Z,94456.50
2023-04-01T21:14:11.431Z,94463.44
2023-04-01T21:16:51.596Z,94462.94
2023-04-01T21:19:42.074Z,94467.75
2023-04-01T21:22:35.229Z,94471.28
2023-04-01T21:25:30.552Z,94478.22
2023-04-01T21:28:26.164Z,94478.44
2023-04-01T21:31:16.322Z,94483.44
2023-04-01T21:34:02.813Z,94489.69
2023-04-01T21:36:55.913Z,94487.09
2023-04-01T21:39:57.107Z,94487.88
2023-04-01T21:42:41.835Z,94486.59
2023-04-01T21:45:34.132Z,94484.22
2023-04-01T21:48:37.332Z,94487.88
2023-04-01T21:51:37.631Z,94490.50
2023-04-01T21:54:39.568Z,94492.88
2023-04-01T21:57:48.607Z,94495.47
2023-04-01T22:00:29.402Z,94496.28
2023-04-01T22:03:27.884Z,94492.88
2023-04-01T22:06:14.279Z,94501.38
2023-04-01T22:08:57.397Z,94500.47
2023-04-01T22:11:40.545Z,94507.19
2023-04-01T22:14:21.283Z,94505.94
2023-04-01T22:17:05.150Z,94502.06
2023-04-01T22:19:48.083Z,94512.06
2023-04-01T22:22:27.012Z,94506.28
2023-04-01T22:25:11.401Z,94505.50
2023-04-01T22:27:50.489Z,94510.72
2023-04-01T22:30:28.180Z,94517.06
2023-04-01T22:33:11.850Z,94515.47
2023-04-01T22:35:53.319Z,94512.31
2023-04-01T22:38:42.209Z,94515.13
2023-04-01T22:41:23.266Z,94518.78
2023-04-01T22:43:54.902Z,94516.94
2023-04-01T22:46:42.563Z,94516.16
2023-04-01T22:49:23.903Z,94527.41
2023-04-01T22:52:00.843Z,94525.03
2023-04-01T22:54:37.898Z,94522.41
2023-04-01T22:57:14.226Z,94535.25
2023-04-01T22:59:52.915Z,94525.59
2023-04-01T23:02:29.570Z,94526.84
2023-04-01T23:05:06.640Z,94531.84
2023-04-01T23:07:50.336Z,94531.06
2023-04-01T23:10:28.877Z,94532.63
2023-04-01T23:13:04.218Z,94532.88
2023-04-01T23:15:38.646Z,94538.09
2023-04-01T23:18:24.089Z,94546.28
2023-04-01T23:21:17.611Z,94543.09
2023-04-01T23:24:02.115Z,94553.78
2023-04-01T23:26:43.628Z,94549.59
2023-04-01T23:29:20.330Z,94549.03
2023-04-01T23:31:51.292Z,94553.22
2023-04-01T23:34:32.692Z,94551.41
2023-04-01T23:37:09.392Z,94558.91
2023-04-01T23:39:44.996Z,94562.66
2023-04-01T23:42:22.396Z,94562.66
2023-04-01T23:44:57.709Z,94552.88
2023-04-01T23:47:33.717Z,94562.09
2023-04-01T23:50:08.959Z,94570.97
2023-04-01T23:52:47.685Z,94562.53
2023-04-01T23:55:25.898Z,94563.31
2023-04-01T23:58:17.934Z,94562.22
